Aérodrome :
LOGIN :

S'inscrire | Disclaimer

   EN    FR    IT 

 










Légende :    VFR   VFR Marginal   IFR   IFR Intensif   IFR Très Intensif
Visi : 
Plafond : 
>= 8 km
>= 3000ft
5 à 8 km
1000 à 3000 ft
1500m à 5 km
500 à 1000 ft
800 à 1500m
200 à 500 ft
< 800m
< 200 ft
Symboles :   Orages  Brouillard  Fortes neiges  Fortes précipitations  Vent > 20 kt
SIGMETs :   Divers  Orages  Givrage  Turbulence  Onde Orograph.  Cendres Volcan.






- Altitude de l'aérodrome : -13 ft
- Code IATA : LEY


EHLE - Lelystad

DERNIER METAR :
  • 182255Z AUTO 06004KT 9999 NSC 19/15 Q1021

METARs EXPIRÉS :
  • 182225Z AUTO 06005KT 9999 NSC 18/15 Q1021
  • 182155Z AUTO 05006KT 9999 NSC 19/15 Q1021
  • 182125Z AUTO 05006KT 9999 NCD 18/15 Q1021
  • 182055Z AUTO 04006KT 9999 NCD 19/15 Q1021
  • 182025Z AUTO 04006KT 9999 NCD 19/15 Q1021
  • 181955Z AUTO 05007KT 9999 NCD 20/15 Q1021
  • 181925Z AUTO 03005KT 9999 NCD 21/16 Q1021 NOSIG
  • 181855Z AUTO 02006KT 9999 NCD 22/15 Q1021 NOSIG

TAF TAF EHLE
Valide du 19 à 00h jusqu'au 20 à 06h UTC


182307Z 1900/2006 09006KT CAVOK



MET'MAP, la Météo Aéronautique d'un coup d'oeil ! - Copyright ORBIFLY Décembre 2007 - Disclaimer

ORBIFLY MET'MAP TEAM :

Programmation & Développement : Alexandra Zaïnal
Sur une idée originale de : Baudouin d'Aumeries
Soutien technique & logistique : Manuel Goepfert
Assistance : Marc-Olivier Méhu




SOURCES & CREDITS :

   NOAA